Huidige situatie

Helder
Barometer
1023.92 (hPa)
Zicht

10.0 (km)
   Temperatuur
25  °C
Temperatuur
11  °C
Dauwpunt
42  %
Vochtigheid
   Windsnelheid
24  km/h
   Windrichting
230°
 Zuid West
   Vliegveld Data
EHGG
      Locatie Eelde 20  km van:
         Weerstation-Sauwerd
Metar :EHGG 221155Z AUTO 23013KT 190V270 9999 NSC 25/11 Q1024 NOSIG
donderdag 22 augustus 13:55
   Raw Metar Info
Raw METAR is het meest gangbare formaat ter wereld voor de overdracht van waarnemingsweergegevens. Het is zeer gestandaardiseerd door de Internationale Burgerluchtvaartorganisatie (ICAO), waardoor het overal in de wereld kan worden begrepen.
   API Info
Data Provided by
https://www.checkwx.com/weather/EHGG
   © Info
CSS/SVG/PHP scripts were developed by weather34.com for use in the weather34 template © 2015-2019

Guide Info provided by Metar-Wikipedia